sensor_id;sensor_type;location;lat;lon;timestamp;P1;durP1;ratioP1;P2;durP2;ratioP2
13079;SDS011;6606;49.154;9.280;2023-01-05T00:01:19;1.13;;;0.60;;
13079;SDS011;6606;49.154;9.280;2023-01-05T00:04:01;0.50;;;0.50;;
13079;SDS011;6606;49.154;9.280;2023-01-05T00:06:45;0.83;;;0.50;;
13079;SDS011;6606;49.154;9.280;2023-01-05T00:09:27;0.43;;;0.43;;
13079;SDS011;6606;49.154;9.280;2023-01-05T00:12:09;0.97;;;0.50;;
13079;SDS011;6606;49.154;9.280;2023-01-05T00:15:08;0.57;;;0.57;;
13079;SDS011;6606;49.154;9.280;2023-01-05T00:18:09;0.50;;;0.50;;
13079;SDS011;6606;49.154;9.280;2023-01-05T00:21:11;0.70;;;0.60;;
13079;SDS011;6606;49.154;9.280;2023-01-05T00:24:15;0.40;;;0.40;;
13079;SDS011;6606;49.154;9.280;2023-01-05T00:26:56;1.00;;;0.50;;
13079;SDS011;6606;49.154;9.280;2023-01-05T00:29:38;0.70;;;0.50;;
13079;SDS011;6606;49.154;9.280;2023-01-05T00:32:20;0.50;;;0.50;;
13079;SDS011;6606;49.154;9.280;2023-01-05T00:35:02;1.27;;;0.50;;
13079;SDS011;6606;49.154;9.280;2023-01-05T00:37:44;0.50;;;0.50;;
13079;SDS011;6606;49.154;9.280;2023-01-05T00:40:27;0.73;;;0.50;;
13079;SDS011;6606;49.154;9.280;2023-01-05T00:43:09;0.63;;;0.53;;
13079;SDS011;6606;49.154;9.280;2023-01-05T00:45:52;0.60;;;0.60;;
13079;SDS011;6606;49.154;9.280;2023-01-05T00:48:34;0.87;;;0.60;;
13079;SDS011;6606;49.154;9.280;2023-01-05T00:51:15;1.07;;;0.47;;
13079;SDS011;6606;49.154;9.280;2023-01-05T00:53:57;1.10;;;0.40;;
13079;SDS011;6606;49.154;9.280;2023-01-05T00:56:40;0.40;;;0.40;;
13079;SDS011;6606;49.154;9.280;2023-01-05T00:59:22;0.60;;;0.60;;
13079;SDS011;6606;49.154;9.280;2023-01-05T01:02:04;0.70;;;0.70;;
13079;SDS011;6606;49.154;9.280;2023-01-05T01:04:46;1.30;;;1.10;;
13079;SDS011;6606;49.154;9.280;2023-01-05T01:07:28;1.37;;;1.00;;
13079;SDS011;6606;49.154;9.280;2023-01-05T01:10:10;1.40;;;1.00;;
13079;SDS011;6606;49.154;9.280;2023-01-05T01:12:53;3.53;;;2.20;;
13079;SDS011;6606;49.154;9.280;2023-01-05T01:15:35;5.10;;;4.20;;
13079;SDS011;6606;49.154;9.280;2023-01-05T01:18:17;1.40;;;1.30;;
13079;SDS011;6606;49.154;9.280;2023-01-05T01:21:00;2.37;;;2.00;;
13079;SDS011;6606;49.154;9.280;2023-01-05T01:23:42;1.50;;;1.20;;
13079;SDS011;6606;49.154;9.280;2023-01-05T01:26:24;2.33;;;2.00;;
13079;SDS011;6606;49.154;9.280;2023-01-05T01:29:07;3.90;;;3.20;;
13079;SDS011;6606;49.154;9.280;2023-01-05T01:31:50;1.70;;;0.80;;
13079;SDS011;6606;49.154;9.280;2023-01-05T01:34:33;1.30;;;1.00;;
13079;SDS011;6606;49.154;9.280;2023-01-05T01:37:15;1.60;;;1.00;;
13079;SDS011;6606;49.154;9.280;2023-01-05T01:40:01;0.63;;;0.60;;
13079;SDS011;6606;49.154;9.280;2023-01-05T01:42:44;0.83;;;0.63;;
13079;SDS011;6606;49.154;9.280;2023-01-05T01:45:28;1.40;;;0.90;;
13079;SDS011;6606;49.154;9.280;2023-01-05T01:48:13;0.53;;;0.50;;
13079;SDS011;6606;49.154;9.280;2023-01-05T01:50:58;0.63;;;0.57;;
13079;SDS011;6606;49.154;9.280;2023-01-05T01:53:44;0.63;;;0.60;;
13079;SDS011;6606;49.154;9.280;2023-01-05T01:56:31;0.57;;;0.57;;
13079;SDS011;6606;49.154;9.280;2023-01-05T01:59:16;0.90;;;0.40;;
13079;SDS011;6606;49.154;9.280;2023-01-05T02:02:00;0.93;;;0.60;;
13079;SDS011;6606;49.154;9.280;2023-01-05T02:04:42;0.53;;;0.53;;
13079;SDS011;6606;49.154;9.280;2023-01-05T02:07:27;0.83;;;0.50;;
13079;SDS011;6606;49.154;9.280;2023-01-05T02:10:13;0.70;;;0.60;;
13079;SDS011;6606;49.154;9.280;2023-01-05T02:13:00;0.60;;;0.60;;
13079;SDS011;6606;49.154;9.280;2023-01-05T02:15:49;0.67;;;0.63;;
13079;SDS011;6606;49.154;9.280;2023-01-05T02:18:45;0.70;;;0.57;;
13079;SDS011;6606;49.154;9.280;2023-01-05T02:21:44;1.27;;;0.60;;
13079;SDS011;6606;49.154;9.280;2023-01-05T02:24:44;2.73;;;0.90;;
13079;SDS011;6606;49.154;9.280;2023-01-05T02:27:44;0.70;;;0.60;;
13079;SDS011;6606;49.154;9.280;2023-01-05T02:30:45;0.60;;;0.60;;
13079;SDS011;6606;49.154;9.280;2023-01-05T02:33:48;0.43;;;0.43;;
13079;SDS011;6606;49.154;9.280;2023-01-05T02:36:45;1.13;;;0.60;;
13079;SDS011;6606;49.154;9.280;2023-01-05T02:39:35;0.43;;;0.43;;
13079;SDS011;6606;49.154;9.280;2023-01-05T02:42:25;0.90;;;0.70;;
13079;SDS011;6606;49.154;9.280;2023-01-05T02:45:13;0.73;;;0.57;;
13079;SDS011;6606;49.154;9.280;2023-01-05T02:47:58;0.60;;;0.60;;
13079;SDS011;6606;49.154;9.280;2023-01-05T02:50:40;0.90;;;0.70;;
13079;SDS011;6606;49.154;9.280;2023-01-05T02:53:26;0.90;;;0.70;;
13079;SDS011;6606;49.154;9.280;2023-01-05T02:56:14;0.53;;;0.53;;
13079;SDS011;6606;49.154;9.280;2023-01-05T02:59:00;0.90;;;0.80;;
13079;SDS011;6606;49.154;9.280;2023-01-05T03:01:45;2.97;;;0.67;;
13079;SDS011;6606;49.154;9.280;2023-01-05T03:04:34;0.40;;;0.40;;
13079;SDS011;6606;49.154;9.280;2023-01-05T03:07:21;0.90;;;0.50;;
13079;SDS011;6606;49.154;9.280;2023-01-05T03:10:07;0.40;;;0.40;;
13079;SDS011;6606;49.154;9.280;2023-01-05T03:13:05;1.03;;;0.70;;
13079;SDS011;6606;49.154;9.280;2023-01-05T03:16:07;0.57;;;0.57;;
13079;SDS011;6606;49.154;9.280;2023-01-05T03:18:52;0.43;;;0.43;;
13079;SDS011;6606;49.154;9.280;2023-01-05T03:21:55;0.40;;;0.40;;
13079;SDS011;6606;49.154;9.280;2023-01-05T03:24:57;0.53;;;0.53;;
13079;SDS011;6606;49.154;9.280;2023-01-05T03:27:57;0.50;;;0.50;;
13079;SDS011;6606;49.154;9.280;2023-01-05T03:31:00;0.50;;;0.30;;
13079;SDS011;6606;49.154;9.280;2023-01-05T03:34:06;1.83;;;0.40;;
13079;SDS011;6606;49.154;9.280;2023-01-05T03:37:09;0.67;;;0.53;;
13079;SDS011;6606;49.154;9.280;2023-01-05T03:39:55;1.97;;;0.70;;
13079;SDS011;6606;49.154;9.280;2023-01-05T03:42:37;0.80;;;0.60;;
13079;SDS011;6606;49.154;9.280;2023-01-05T03:45:19;0.40;;;0.40;;
13079;SDS011;6606;49.154;9.280;2023-01-05T03:48:02;0.93;;;0.53;;
13079;SDS011;6606;49.154;9.280;2023-01-05T03:50:45;0.53;;;0.53;;
13079;SDS011;6606;49.154;9.280;2023-01-05T03:53:31;0.77;;;0.50;;
13079;SDS011;6606;49.154;9.280;2023-01-05T03:56:12;0.77;;;0.60;;
13079;SDS011;6606;49.154;9.280;2023-01-05T03:58:54;0.53;;;0.53;;
13079;SDS011;6606;49.154;9.280;2023-01-05T04:01:36;0.60;;;0.60;;
13079;SDS011;6606;49.154;9.280;2023-01-05T04:04:18;0.77;;;0.60;;
13079;SDS011;6606;49.154;9.280;2023-01-05T04:07:00;0.73;;;0.50;;
13079;SDS011;6606;49.154;9.280;2023-01-05T04:09:46;1.07;;;0.60;;
13079;SDS011;6606;49.154;9.280;2023-01-05T04:12:29;0.77;;;0.60;;
13079;SDS011;6606;49.154;9.280;2023-01-05T04:15:11;0.77;;;0.50;;
13079;SDS011;6606;49.154;9.280;2023-01-05T04:17:53;0.90;;;0.50;;
13079;SDS011;6606;49.154;9.280;2023-01-05T04:20:34;0.50;;;0.50;;
13079;SDS011;6606;49.154;9.280;2023-01-05T04:23:16;0.80;;;0.40;;
13079;SDS011;6606;49.154;9.280;2023-01-05T04:25:59;2.40;;;0.90;;
13079;SDS011;6606;49.154;9.280;2023-01-05T04:28:41;0.47;;;0.47;;
13079;SDS011;6606;49.154;9.280;2023-01-05T04:31:24;0.40;;;0.40;;
13079;SDS011;6606;49.154;9.280;2023-01-05T04:34:08;1.23;;;0.60;;
13079;SDS011;6606;49.154;9.280;2023-01-05T04:36:51;1.27;;;0.80;;
13079;SDS011;6606;49.154;9.280;2023-01-05T04:39:35;0.40;;;0.40;;
13079;SDS011;6606;49.154;9.280;2023-01-05T04:42:18;2.80;;;0.87;;
13079;SDS011;6606;49.154;9.280;2023-01-05T04:45:07;0.77;;;0.63;;
13079;SDS011;6606;49.154;9.280;2023-01-05T04:47:49;0.50;;;0.50;;
13079;SDS011;6606;49.154;9.280;2023-01-05T04:50:34;0.50;;;0.50;;
13079;SDS011;6606;49.154;9.280;2023-01-05T04:53:16;0.40;;;0.40;;
13079;SDS011;6606;49.154;9.280;2023-01-05T04:55:58;0.40;;;0.40;;
13079;SDS011;6606;49.154;9.280;2023-01-05T04:58:45;1.30;;;0.40;;
13079;SDS011;6606;49.154;9.280;2023-01-05T05:01:27;0.57;;;0.47;;
13079;SDS011;6606;49.154;9.280;2023-01-05T05:04:11;0.47;;;0.47;;
13079;SDS011;6606;49.154;9.280;2023-01-05T05:06:53;0.90;;;0.50;;
13079;SDS011;6606;49.154;9.280;2023-01-05T05:09:38;0.53;;;0.50;;
13079;SDS011;6606;49.154;9.280;2023-01-05T05:12:20;1.70;;;0.60;;
13079;SDS011;6606;49.154;9.280;2023-01-05T05:15:07;0.33;;;0.33;;
13079;SDS011;6606;49.154;9.280;2023-01-05T05:17:54;0.73;;;0.50;;
13079;SDS011;6606;49.154;9.280;2023-01-05T05:20:36;1.10;;;0.43;;
13079;SDS011;6606;49.154;9.280;2023-01-05T05:23:21;0.63;;;0.57;;
13079;SDS011;6606;49.154;9.280;2023-01-05T05:26:03;0.83;;;0.40;;
13079;SDS011;6606;49.154;9.280;2023-01-05T05:28:45;1.30;;;0.60;;
13079;SDS011;6606;49.154;9.280;2023-01-05T05:31:28;1.33;;;0.50;;
13079;SDS011;6606;49.154;9.280;2023-01-05T05:34:10;0.70;;;0.63;;
13079;SDS011;6606;49.154;9.280;2023-01-05T05:36:52;3.67;;;0.90;;
13079;SDS011;6606;49.154;9.280;2023-01-05T05:39:33;2.37;;;1.10;;
13079;SDS011;6606;49.154;9.280;2023-01-05T05:42:15;1.00;;;0.70;;
13079;SDS011;6606;49.154;9.280;2023-01-05T05:44:57;1.70;;;0.90;;
13079;SDS011;6606;49.154;9.280;2023-01-05T05:47:40;2.30;;;0.90;;
13079;SDS011;6606;49.154;9.280;2023-01-05T05:50:23;3.10;;;0.90;;
13079;SDS011;6606;49.154;9.280;2023-01-05T05:53:05;2.40;;;0.87;;
13079;SDS011;6606;49.154;9.280;2023-01-05T05:55:47;2.73;;;1.03;;
13079;SDS011;6606;49.154;9.280;2023-01-05T05:58:29;2.83;;;1.10;;
13079;SDS011;6606;49.154;9.280;2023-01-05T06:01:11;3.33;;;1.20;;
13079;SDS011;6606;49.154;9.280;2023-01-05T06:03:54;2.43;;;1.00;;
13079;SDS011;6606;49.154;9.280;2023-01-05T06:06:36;3.80;;;0.93;;
13079;SDS011;6606;49.154;9.280;2023-01-05T06:09:19;3.57;;;1.30;;
13079;SDS011;6606;49.154;9.280;2023-01-05T06:12:00;2.90;;;1.20;;
13079;SDS011;6606;49.154;9.280;2023-01-05T06:14:42;2.77;;;1.10;;
13079;SDS011;6606;49.154;9.280;2023-01-05T06:17:24;3.03;;;1.20;;
13079;SDS011;6606;49.154;9.280;2023-01-05T06:20:07;4.33;;;1.33;;
13079;SDS011;6606;49.154;9.280;2023-01-05T06:22:49;3.90;;;1.27;;
13079;SDS011;6606;49.154;9.280;2023-01-05T06:25:31;3.63;;;1.23;;
13079;SDS011;6606;49.154;9.280;2023-01-05T06:28:13;4.97;;;1.40;;
13079;SDS011;6606;49.154;9.280;2023-01-05T06:30:55;5.97;;;1.50;;
13079;SDS011;6606;49.154;9.280;2023-01-05T06:33:37;10.17;;;1.63;;
13079;SDS011;6606;49.154;9.280;2023-01-05T06:36:20;8.43;;;1.93;;
13079;SDS011;6606;49.154;9.280;2023-01-05T06:39:02;8.40;;;1.97;;
13079;SDS011;6606;49.154;9.280;2023-01-05T06:41:43;7.07;;;1.83;;
13079;SDS011;6606;49.154;9.280;2023-01-05T06:44:25;5.70;;;1.83;;
13079;SDS011;6606;49.154;9.280;2023-01-05T06:47:07;6.43;;;2.03;;
13079;SDS011;6606;49.154;9.280;2023-01-05T06:49:49;8.70;;;2.37;;
13079;SDS011;6606;49.154;9.280;2023-01-05T06:52:32;9.20;;;1.93;;
13079;SDS011;6606;49.154;9.280;2023-01-05T06:55:16;5.43;;;1.60;;
13079;SDS011;6606;49.154;9.280;2023-01-05T06:57:57;8.33;;;1.87;;
13079;SDS011;6606;49.154;9.280;2023-01-05T07:00:39;10.47;;;2.40;;
13079;SDS011;6606;49.154;9.280;2023-01-05T07:03:21;9.83;;;2.20;;
13079;SDS011;6606;49.154;9.280;2023-01-05T07:06:03;5.97;;;1.97;;
13079;SDS011;6606;49.154;9.280;2023-01-05T07:08:47;9.23;;;2.03;;
13079;SDS011;6606;49.154;9.280;2023-01-05T07:11:28;6.83;;;1.87;;
13079;SDS011;6606;49.154;9.280;2023-01-05T07:14:10;8.23;;;2.20;;
13079;SDS011;6606;49.154;9.280;2023-01-05T07:16:52;10.10;;;2.30;;
13079;SDS011;6606;49.154;9.280;2023-01-05T07:19:34;9.97;;;2.10;;
13079;SDS011;6606;49.154;9.280;2023-01-05T07:22:15;7.93;;;2.00;;
13079;SDS011;6606;49.154;9.280;2023-01-05T07:24:58;9.07;;;2.37;;
13079;SDS011;6606;49.154;9.280;2023-01-05T07:27:40;9.80;;;2.60;;
13079;SDS011;6606;49.154;9.280;2023-01-05T07:30:22;8.27;;;2.27;;
13079;SDS011;6606;49.154;9.280;2023-01-05T07:33:03;5.47;;;2.00;;
13079;SDS011;6606;49.154;9.280;2023-01-05T07:35:45;8.87;;;2.40;;
13079;SDS011;6606;49.154;9.280;2023-01-05T07:38:27;6.13;;;2.30;;
13079;SDS011;6606;49.154;9.280;2023-01-05T07:41:10;7.40;;;2.30;;
13079;SDS011;6606;49.154;9.280;2023-01-05T07:43:52;7.83;;;2.20;;
13079;SDS011;6606;49.154;9.280;2023-01-05T07:46:34;6.87;;;2.23;;
13079;SDS011;6606;49.154;9.280;2023-01-05T07:49:15;7.53;;;2.00;;
13079;SDS011;6606;49.154;9.280;2023-01-05T07:51:57;4.27;;;1.80;;
13079;SDS011;6606;49.154;9.280;2023-01-05T07:54:39;9.87;;;2.30;;
13079;SDS011;6606;49.154;9.280;2023-01-05T07:57:22;8.30;;;1.90;;
13079;SDS011;6606;49.154;9.280;2023-01-05T08:00:04;10.67;;;2.37;;
13079;SDS011;6606;49.154;9.280;2023-01-05T08:02:51;11.30;;;2.43;;
13079;SDS011;6606;49.154;9.280;2023-01-05T08:05:34;9.80;;;2.50;;
13079;SDS011;6606;49.154;9.280;2023-01-05T08:08:17;8.67;;;1.97;;
13079;SDS011;6606;49.154;9.280;2023-01-05T08:10:58;9.27;;;2.37;;
13079;SDS011;6606;49.154;9.280;2023-01-05T08:13:42;10.90;;;2.47;;
13079;SDS011;6606;49.154;9.280;2023-01-05T08:16:39;9.87;;;3.00;;
13079;SDS011;6606;49.154;9.280;2023-01-05T08:19:22;8.20;;;2.20;;
13079;SDS011;6606;49.154;9.280;2023-01-05T08:22:03;7.67;;;2.30;;
13079;SDS011;6606;49.154;9.280;2023-01-05T08:24:45;6.67;;;1.97;;
13079;SDS011;6606;49.154;9.280;2023-01-05T08:27:27;6.90;;;2.07;;
13079;SDS011;6606;49.154;9.280;2023-01-05T08:30:11;6.60;;;2.00;;
13079;SDS011;6606;49.154;9.280;2023-01-05T08:32:53;10.13;;;2.67;;
13079;SDS011;6606;49.154;9.280;2023-01-05T08:35:38;8.00;;;2.47;;
13079;SDS011;6606;49.154;9.280;2023-01-05T08:38:21;6.70;;;2.60;;
13079;SDS011;6606;49.154;9.280;2023-01-05T08:41:03;10.57;;;2.70;;
13079;SDS011;6606;49.154;9.280;2023-01-05T08:43:48;9.80;;;2.80;;
13079;SDS011;6606;49.154;9.280;2023-01-05T08:46:33;6.10;;;2.33;;
13079;SDS011;6606;49.154;9.280;2023-01-05T08:49:15;8.90;;;2.40;;
13079;SDS011;6606;49.154;9.280;2023-01-05T08:51:57;11.20;;;2.77;;
13079;SDS011;6606;49.154;9.280;2023-01-05T08:54:39;8.33;;;1.90;;
13079;SDS011;6606;49.154;9.280;2023-01-05T08:57:21;8.10;;;2.27;;
13079;SDS011;6606;49.154;9.280;2023-01-05T09:00:03;8.80;;;2.30;;
13079;SDS011;6606;49.154;9.280;2023-01-05T09:02:47;7.50;;;2.00;;
13079;SDS011;6606;49.154;9.280;2023-01-05T09:05:29;6.63;;;2.27;;
13079;SDS011;6606;49.154;9.280;2023-01-05T09:08:11;8.80;;;2.30;;
13079;SDS011;6606;49.154;9.280;2023-01-05T09:10:52;7.07;;;2.10;;
13079;SDS011;6606;49.154;9.280;2023-01-05T09:13:35;5.87;;;1.93;;
13079;SDS011;6606;49.154;9.280;2023-01-05T09:16:18;7.07;;;1.97;;
13079;SDS011;6606;49.154;9.280;2023-01-05T09:19:03;8.40;;;2.67;;
13079;SDS011;6606;49.154;9.280;2023-01-05T09:21:44;7.53;;;2.43;;
13079;SDS011;6606;49.154;9.280;2023-01-05T09:24:26;8.27;;;2.10;;
13079;SDS011;6606;49.154;9.280;2023-01-05T09:27:08;7.97;;;2.53;;
13079;SDS011;6606;49.154;9.280;2023-01-05T09:29:50;5.83;;;2.20;;
13079;SDS011;6606;49.154;9.280;2023-01-05T09:32:31;12.63;;;2.60;;
13079;SDS011;6606;49.154;9.280;2023-01-05T09:35:14;7.83;;;2.10;;
13079;SDS011;6606;49.154;9.280;2023-01-05T09:37:57;10.03;;;2.20;;
13079;SDS011;6606;49.154;9.280;2023-01-05T09:40:39;11.33;;;2.70;;
13079;SDS011;6606;49.154;9.280;2023-01-05T09:43:24;9.30;;;2.40;;
13079;SDS011;6606;49.154;9.280;2023-01-05T09:46:10;9.83;;;2.77;;
13079;SDS011;6606;49.154;9.280;2023-01-05T09:48:56;10.60;;;2.40;;
13079;SDS011;6606;49.154;9.280;2023-01-05T09:51:42;6.77;;;2.60;;
13079;SDS011;6606;49.154;9.280;2023-01-05T09:54:25;7.57;;;2.10;;
13079;SDS011;6606;49.154;9.280;2023-01-05T09:57:12;10.40;;;2.63;;
13079;SDS011;6606;49.154;9.280;2023-01-05T09:59:58;11.43;;;2.90;;
13079;SDS011;6606;49.154;9.280;2023-01-05T10:02:49;9.70;;;2.50;;
13079;SDS011;6606;49.154;9.280;2023-01-05T10:05:33;9.50;;;2.83;;
13079;SDS011;6606;49.154;9.280;2023-01-05T10:08:23;10.87;;;2.60;;
13079;SDS011;6606;49.154;9.280;2023-01-05T10:11:12;8.43;;;2.33;;
13079;SDS011;6606;49.154;9.280;2023-01-05T10:14:19;6.77;;;2.27;;
13079;SDS011;6606;49.154;9.280;2023-01-05T10:17:08;8.20;;;2.40;;
13079;SDS011;6606;49.154;9.280;2023-01-05T10:20:11;12.10;;;2.93;;
13079;SDS011;6606;49.154;9.280;2023-01-05T10:22:58;8.50;;;2.63;;
13079;SDS011;6606;49.154;9.280;2023-01-05T10:25:48;8.23;;;2.47;;
13079;SDS011;6606;49.154;9.280;2023-01-05T10:28:35;8.07;;;2.47;;
13079;SDS011;6606;49.154;9.280;2023-01-05T10:31:23;8.80;;;2.43;;
13079;SDS011;6606;49.154;9.280;2023-01-05T10:34:19;10.60;;;2.60;;
13079;SDS011;6606;49.154;9.280;2023-01-05T10:37:06;8.03;;;2.50;;
13079;SDS011;6606;49.154;9.280;2023-01-05T10:40:07;5.80;;;2.20;;
13079;SDS011;6606;49.154;9.280;2023-01-05T10:43:03;7.93;;;2.40;;
13079;SDS011;6606;49.154;9.280;2023-01-05T10:45:57;9.07;;;2.67;;
13079;SDS011;6606;49.154;9.280;2023-01-05T10:48:41;8.23;;;2.13;;
13079;SDS011;6606;49.154;9.280;2023-01-05T10:51:23;11.17;;;2.70;;
13079;SDS011;6606;49.154;9.280;2023-01-05T10:54:05;12.03;;;3.00;;
13079;SDS011;6606;49.154;9.280;2023-01-05T10:56:51;11.80;;;3.10;;
13079;SDS011;6606;49.154;9.280;2023-01-05T10:59:34;9.50;;;2.60;;
13079;SDS011;6606;49.154;9.280;2023-01-05T11:02:35;11.50;;;3.00;;
13079;SDS011;6606;49.154;9.280;2023-01-05T11:05:24;10.50;;;2.50;;
13079;SDS011;6606;49.154;9.280;2023-01-05T11:08:12;9.90;;;2.63;;
13079;SDS011;6606;49.154;9.280;2023-01-05T11:10:57;12.17;;;3.00;;
13079;SDS011;6606;49.154;9.280;2023-01-05T11:13:41;12.90;;;3.20;;
13079;SDS011;6606;49.154;9.280;2023-01-05T11:16:29;11.53;;;2.70;;
13079;SDS011;6606;49.154;9.280;2023-01-05T11:19:12;10.33;;;2.90;;
13079;SDS011;6606;49.154;9.280;2023-01-05T11:21:57;10.10;;;2.67;;
13079;SDS011;6606;49.154;9.280;2023-01-05T11:24:39;12.67;;;3.30;;
13079;SDS011;6606;49.154;9.280;2023-01-05T11:27:21;10.57;;;2.80;;
13079;SDS011;6606;49.154;9.280;2023-01-05T11:30:16;10.10;;;3.13;;
13079;SDS011;6606;49.154;9.280;2023-01-05T11:33:12;13.17;;;3.30;;
13079;SDS011;6606;49.154;9.280;2023-01-05T11:35:55;11.80;;;3.60;;
13079;SDS011;6606;49.154;9.280;2023-01-05T11:38:38;10.17;;;2.87;;
13079;SDS011;6606;49.154;9.280;2023-01-05T11:41:20;9.97;;;3.23;;
13079;SDS011;6606;49.154;9.280;2023-01-05T11:44:03;10.53;;;2.90;;
13079;SDS011;6606;49.154;9.280;2023-01-05T11:46:46;9.10;;;2.37;;
13079;SDS011;6606;49.154;9.280;2023-01-05T11:49:30;15.07;;;3.13;;
13079;SDS011;6606;49.154;9.280;2023-01-05T11:52:22;16.07;;;3.17;;
13079;SDS011;6606;49.154;9.280;2023-01-05T11:55:24;16.80;;;3.03;;
13079;SDS011;6606;49.154;9.280;2023-01-05T11:58:11;12.30;;;3.20;;
13079;SDS011;6606;49.154;9.280;2023-01-05T12:01:17;13.00;;;2.90;;
13079;SDS011;6606;49.154;9.280;2023-01-05T12:04:24;14.73;;;3.57;;
13079;SDS011;6606;49.154;9.280;2023-01-05T12:07:34;9.67;;;2.67;;
13079;SDS011;6606;49.154;9.280;2023-01-05T12:16:58;12.07;;;2.90;;
13079;SDS011;6606;49.154;9.280;2023-01-05T12:19:53;12.00;;;2.70;;
13079;SDS011;6606;49.154;9.280;2023-01-05T12:22:46;11.37;;;3.10;;
13079;SDS011;6606;49.154;9.280;2023-01-05T12:25:43;12.20;;;3.00;;
13079;SDS011;6606;49.154;9.280;2023-01-05T12:28:48;13.33;;;3.53;;
13079;SDS011;6606;49.154;9.280;2023-01-05T12:31:39;13.43;;;3.10;;
13079;SDS011;6606;49.154;9.280;2023-01-05T12:37:43;14.13;;;3.10;;
13079;SDS011;6606;49.154;9.280;2023-01-05T12:40:42;16.50;;;3.10;;
13079;SDS011;6606;49.154;9.280;2023-01-05T12:43:36;13.10;;;3.53;;
13079;SDS011;6606;49.154;9.280;2023-01-05T12:46:30;14.00;;;3.40;;
13079;SDS011;6606;49.154;9.280;2023-01-05T12:49:23;13.87;;;2.73;;
13079;SDS011;6606;49.154;9.280;2023-01-05T12:52:09;11.50;;;2.90;;
13079;SDS011;6606;49.154;9.280;2023-01-05T12:54:58;12.37;;;3.40;;
13079;SDS011;6606;49.154;9.280;2023-01-05T12:57:45;12.17;;;3.47;;
13079;SDS011;6606;49.154;9.280;2023-01-05T13:00:30;12.83;;;3.67;;
13079;SDS011;6606;49.154;9.280;2023-01-05T13:03:16;13.23;;;3.40;;
13079;SDS011;6606;49.154;9.280;2023-01-05T13:06:03;15.10;;;3.13;;
13079;SDS011;6606;49.154;9.280;2023-01-05T13:08:50;15.30;;;3.77;;
13079;SDS011;6606;49.154;9.280;2023-01-05T13:11:35;12.90;;;3.30;;
13079;SDS011;6606;49.154;9.280;2023-01-05T13:14:23;12.17;;;3.20;;
13079;SDS011;6606;49.154;9.280;2023-01-05T13:17:09;12.20;;;3.13;;
13079;SDS011;6606;49.154;9.280;2023-01-05T13:20:01;14.60;;;3.47;;
13079;SDS011;6606;49.154;9.280;2023-01-05T13:22:45;16.77;;;3.73;;
13079;SDS011;6606;49.154;9.280;2023-01-05T13:25:31;13.50;;;3.27;;
13079;SDS011;6606;49.154;9.280;2023-01-05T13:28:20;11.80;;;3.33;;
13079;SDS011;6606;49.154;9.280;2023-01-05T13:34:42;14.53;;;3.57;;
13079;SDS011;6606;49.154;9.280;2023-01-05T13:37:40;12.83;;;3.17;;
13079;SDS011;6606;49.154;9.280;2023-01-05T13:40:41;12.23;;;3.30;;
13079;SDS011;6606;49.154;9.280;2023-01-05T13:44:07;14.13;;;3.30;;
13079;SDS011;6606;49.154;9.280;2023-01-05T13:47:02;11.13;;;3.00;;
13079;SDS011;6606;49.154;9.280;2023-01-05T13:53:14;10.03;;;3.03;;
13079;SDS011;6606;49.154;9.280;2023-01-05T13:56:00;14.10;;;3.40;;
13079;SDS011;6606;49.154;9.280;2023-01-05T13:58:46;11.50;;;3.13;;
13079;SDS011;6606;49.154;9.280;2023-01-05T14:01:34;16.10;;;3.17;;
13079;SDS011;6606;49.154;9.280;2023-01-05T14:04:18;15.27;;;3.27;;
13079;SDS011;6606;49.154;9.280;2023-01-05T14:07:03;12.87;;;3.73;;
13079;SDS011;6606;49.154;9.280;2023-01-05T14:09:52;13.03;;;3.30;;
13079;SDS011;6606;49.154;9.280;2023-01-05T14:12:44;14.83;;;3.50;;
13079;SDS011;6606;49.154;9.280;2023-01-05T14:15:37;17.53;;;3.47;;
13079;SDS011;6606;49.154;9.280;2023-01-05T14:21:43;12.63;;;3.13;;
13079;SDS011;6606;49.154;9.280;2023-01-05T14:24:40;14.87;;;3.70;;
13079;SDS011;6606;49.154;9.280;2023-01-05T14:27:26;12.83;;;3.53;;
13079;SDS011;6606;49.154;9.280;2023-01-05T14:30:22;13.97;;;3.10;;
13079;SDS011;6606;49.154;9.280;2023-01-05T14:33:06;11.83;;;3.33;;
13079;SDS011;6606;49.154;9.280;2023-01-05T14:35:49;11.23;;;3.10;;
13079;SDS011;6606;49.154;9.280;2023-01-05T14:38:31;13.80;;;3.10;;
13079;SDS011;6606;49.154;9.280;2023-01-05T14:41:14;13.30;;;3.50;;
13079;SDS011;6606;49.154;9.280;2023-01-05T14:44:03;15.03;;;3.17;;
13079;SDS011;6606;49.154;9.280;2023-01-05T14:46:50;14.17;;;3.43;;
13079;SDS011;6606;49.154;9.280;2023-01-05T14:49:34;17.50;;;3.37;;
13079;SDS011;6606;49.154;9.280;2023-01-05T14:52:18;11.57;;;3.47;;
13079;SDS011;6606;49.154;9.280;2023-01-05T14:55:21;16.37;;;3.50;;
13079;SDS011;6606;49.154;9.280;2023-01-05T14:58:10;14.33;;;3.30;;
13079;SDS011;6606;49.154;9.280;2023-01-05T15:00:54;17.40;;;3.70;;
13079;SDS011;6606;49.154;9.280;2023-01-05T15:03:44;10.60;;;3.10;;
13079;SDS011;6606;49.154;9.280;2023-01-05T15:06:34;11.20;;;3.30;;
13079;SDS011;6606;49.154;9.280;2023-01-05T15:09:35;13.00;;;3.10;;
13079;SDS011;6606;49.154;9.280;2023-01-05T15:12:47;16.63;;;3.47;;
13079;SDS011;6606;49.154;9.280;2023-01-05T15:15:42;13.50;;;3.37;;
13079;SDS011;6606;49.154;9.280;2023-01-05T15:18:48;11.33;;;3.07;;
13079;SDS011;6606;49.154;9.280;2023-01-05T15:21:54;9.40;;;3.33;;
13079;SDS011;6606;49.154;9.280;2023-01-05T15:31:27;17.70;;;4.63;;
13079;SDS011;6606;49.154;9.280;2023-01-05T15:34:15;13.93;;;3.13;;
13079;SDS011;6606;49.154;9.280;2023-01-05T15:37:03;16.37;;;4.00;;
13079;SDS011;6606;49.154;9.280;2023-01-05T15:39:52;17.10;;;4.20;;
13079;SDS011;6606;49.154;9.280;2023-01-05T15:42:37;14.73;;;3.87;;
13079;SDS011;6606;49.154;9.280;2023-01-05T15:45:21;14.37;;;4.20;;
13079;SDS011;6606;49.154;9.280;2023-01-05T15:48:05;16.17;;;4.67;;
13079;SDS011;6606;49.154;9.280;2023-01-05T15:50:51;11.73;;;3.17;;
13079;SDS011;6606;49.154;9.280;2023-01-05T15:53:35;16.13;;;4.60;;
13079;SDS011;6606;49.154;9.280;2023-01-05T15:56:24;19.63;;;4.73;;
13079;SDS011;6606;49.154;9.280;2023-01-05T15:59:17;12.20;;;3.53;;
13079;SDS011;6606;49.154;9.280;2023-01-05T16:02:14;18.33;;;4.20;;
13079;SDS011;6606;49.154;9.280;2023-01-05T16:05:07;11.67;;;4.03;;
13079;SDS011;6606;49.154;9.280;2023-01-05T16:07:53;16.00;;;4.47;;
13079;SDS011;6606;49.154;9.280;2023-01-05T16:10:39;13.70;;;3.77;;
13079;SDS011;6606;49.154;9.280;2023-01-05T16:13:25;13.00;;;3.43;;
13079;SDS011;6606;49.154;9.280;2023-01-05T16:16:12;19.70;;;9.33;;
13079;SDS011;6606;49.154;9.280;2023-01-05T16:18:58;16.53;;;4.70;;
13079;SDS011;6606;49.154;9.280;2023-01-05T16:21:44;17.00;;;4.03;;
13079;SDS011;6606;49.154;9.280;2023-01-05T16:24:31;15.73;;;3.67;;
13079;SDS011;6606;49.154;9.280;2023-01-05T16:27:17;13.97;;;4.20;;
13079;SDS011;6606;49.154;9.280;2023-01-05T16:30:11;14.70;;;4.00;;
13079;SDS011;6606;49.154;9.280;2023-01-05T16:32:56;14.67;;;3.53;;
13079;SDS011;6606;49.154;9.280;2023-01-05T16:35:40;15.67;;;3.50;;
13079;SDS011;6606;49.154;9.280;2023-01-05T16:38:24;13.27;;;3.77;;
13079;SDS011;6606;49.154;9.280;2023-01-05T16:41:12;11.67;;;3.57;;
13079;SDS011;6606;49.154;9.280;2023-01-05T16:44:00;12.87;;;3.63;;
13079;SDS011;6606;49.154;9.280;2023-01-05T16:46:43;14.17;;;3.73;;
13079;SDS011;6606;49.154;9.280;2023-01-05T16:49:26;18.27;;;3.60;;
13079;SDS011;6606;49.154;9.280;2023-01-05T16:52:21;11.70;;;3.00;;
13079;SDS011;6606;49.154;9.280;2023-01-05T16:55:13;15.00;;;3.93;;
13079;SDS011;6606;49.154;9.280;2023-01-05T17:01:24;18.97;;;4.30;;
13079;SDS011;6606;49.154;9.280;2023-01-05T17:04:08;19.57;;;7.00;;
13079;SDS011;6606;49.154;9.280;2023-01-05T17:06:51;13.77;;;3.63;;
13079;SDS011;6606;49.154;9.280;2023-01-05T17:09:33;10.23;;;3.60;;
13079;SDS011;6606;49.154;9.280;2023-01-05T17:12:15;16.33;;;4.43;;
13079;SDS011;6606;49.154;9.280;2023-01-05T17:15:00;17.47;;;4.30;;
13079;SDS011;6606;49.154;9.280;2023-01-05T17:17:43;13.40;;;4.73;;
13079;SDS011;6606;49.154;9.280;2023-01-05T17:20:26;14.00;;;3.83;;
13079;SDS011;6606;49.154;9.280;2023-01-05T17:23:11;13.97;;;4.13;;